sensor_id;sensor_type;location;lat;lon;timestamp;P1;durP1;ratioP1;P2;durP2;ratioP2
51957;SDS011;41120;51.820;20.804;2022-08-30T00:01:26;15.80;;;7.57;;
51957;SDS011;41120;51.820;20.804;2022-08-30T00:06:45;16.60;;;7.43;;
51957;SDS011;41120;51.820;20.804;2022-08-30T00:11:59;11.63;;;7.80;;
51957;SDS011;41120;51.820;20.804;2022-08-30T00:17:32;15.73;;;8.63;;
51957;SDS011;41120;51.820;20.804;2022-08-30T00:19:59;21.73;;;9.40;;
51957;SDS011;41120;51.820;20.804;2022-08-30T00:22:24;14.70;;;9.47;;
51957;SDS011;41120;51.820;20.804;2022-08-30T00:24:55;20.30;;;9.70;;
51957;SDS011;41120;51.820;20.804;2022-08-30T00:29:59;18.40;;;11.23;;
51957;SDS011;41120;51.820;20.804;2022-08-30T00:38:13;14.52;;;9.70;;
51957;SDS011;41120;51.820;20.804;2022-08-30T00:46:22;17.80;;;10.17;;
51957;SDS011;41120;51.820;20.804;2022-08-30T00:49:00;21.40;;;10.20;;
51957;SDS011;41120;51.820;20.804;2022-08-30T00:51:47;16.07;;;9.73;;
51957;SDS011;41120;51.820;20.804;2022-08-30T00:56:46;17.20;;;9.90;;
51957;SDS011;41120;51.820;20.804;2022-08-30T01:01:59;17.77;;;10.20;;
51957;SDS011;41120;51.820;20.804;2022-08-30T01:04:35;18.10;;;9.30;;
51957;SDS011;41120;51.820;20.804;2022-08-30T01:09:59;18.80;;;10.87;;
51957;SDS011;41120;51.820;20.804;2022-08-30T01:12:28;21.10;;;12.40;;
51957;SDS011;41120;51.820;20.804;2022-08-30T01:15:00;21.03;;;12.13;;
51957;SDS011;41120;51.820;20.804;2022-08-30T01:26:14;20.70;;;12.10;;
51957;SDS011;41120;51.820;20.804;2022-08-30T01:28:59;17.43;;;11.87;;
51957;SDS011;41120;51.820;20.804;2022-08-30T01:34:21;23.87;;;12.30;;
51957;SDS011;41120;51.820;20.804;2022-08-30T01:36:48;22.03;;;12.27;;
51957;SDS011;41120;51.820;20.804;2022-08-30T01:39:29;21.67;;;13.17;;
51957;SDS011;41120;51.820;20.804;2022-08-30T01:42:00;24.87;;;13.67;;
51957;SDS011;41120;51.820;20.804;2022-08-30T01:44:34;23.15;;;13.40;;
51957;SDS011;41120;51.820;20.804;2022-08-30T01:49:47;23.23;;;13.70;;
51957;SDS011;41120;51.820;20.804;2022-08-30T01:52:14;25.80;;;13.57;;
51957;SDS011;41120;51.820;20.804;2022-08-30T01:57:22;24.63;;;13.33;;
51957;SDS011;41120;51.820;20.804;2022-08-30T01:59:52;26.10;;;12.60;;
51957;SDS011;41120;51.820;20.804;2022-08-30T02:02:36;20.00;;;12.83;;
51957;SDS011;41120;51.820;20.804;2022-08-30T02:10:37;19.50;;;13.00;;
51957;SDS011;41120;51.820;20.804;2022-08-30T02:13:20;22.80;;;13.50;;
51957;SDS011;41120;51.820;20.804;2022-08-30T02:15:46;24.67;;;13.37;;
51957;SDS011;41120;51.820;20.804;2022-08-30T02:18:13;23.07;;;13.43;;
51957;SDS011;41120;51.820;20.804;2022-08-30T02:20:56;21.33;;;12.40;;
51957;SDS011;41120;51.820;20.804;2022-08-30T02:31:53;27.03;;;14.53;;
51957;SDS011;41120;51.820;20.804;2022-08-30T02:37:31;24.43;;;14.40;;
51957;SDS011;41120;51.820;20.804;2022-08-30T02:39:59;28.00;;;15.80;;
51957;SDS011;41120;51.820;20.804;2022-08-30T02:45:03;28.07;;;15.90;;
51957;SDS011;41120;51.820;20.804;2022-08-30T02:52:36;29.17;;;14.60;;
51957;SDS011;41120;51.820;20.804;2022-08-30T02:55:04;25.70;;;15.07;;
51957;SDS011;41120;51.820;20.804;2022-08-30T02:57:31;24.83;;;15.93;;
51957;SDS011;41120;51.820;20.804;2022-08-30T03:02:34;23.40;;;14.40;;
51957;SDS011;41120;51.820;20.804;2022-08-30T03:05:01;24.37;;;14.93;;
51957;SDS011;41120;51.820;20.804;2022-08-30T03:10:02;29.97;;;16.83;;
51957;SDS011;41120;51.820;20.804;2022-08-30T03:17:38;30.47;;;16.17;;
51957;SDS011;41120;51.820;20.804;2022-08-30T03:23:19;23.40;;;15.03;;
51957;SDS011;41120;51.820;20.804;2022-08-30T03:26:02;28.63;;;16.60;;
51957;SDS011;41120;51.820;20.804;2022-08-30T03:28:40;31.35;;;17.08;;
51957;SDS011;41120;51.820;20.804;2022-08-30T03:33:44;28.60;;;16.20;;
51957;SDS011;41120;51.820;20.804;2022-08-30T03:47:33;29.00;;;16.40;;
51957;SDS011;41120;51.820;20.804;2022-08-30T03:50:05;24.13;;;14.90;;
51957;SDS011;41120;51.820;20.804;2022-08-30T03:52:47;25.83;;;15.70;;
51957;SDS011;41120;51.820;20.804;2022-08-30T03:55:28;23.80;;;14.53;;
51957;SDS011;41120;51.820;20.804;2022-08-30T04:03:07;25.17;;;13.73;;
51957;SDS011;41120;51.820;20.804;2022-08-30T04:05:42;28.13;;;14.70;;
51957;SDS011;41120;51.820;20.804;2022-08-30T04:11:05;22.27;;;14.57;;
51957;SDS011;41120;51.820;20.804;2022-08-30T04:18:44;25.87;;;15.77;;
51957;SDS011;41120;51.820;20.804;2022-08-30T04:21:22;22.37;;;15.47;;
51957;SDS011;41120;51.820;20.804;2022-08-30T04:23:48;25.83;;;16.67;;
51957;SDS011;41120;51.820;20.804;2022-08-30T04:29:21;29.43;;;18.77;;
51957;SDS011;41120;51.820;20.804;2022-08-30T04:31:50;27.30;;;18.87;;
51957;SDS011;41120;51.820;20.804;2022-08-30T04:34:24;29.50;;;17.70;;
51957;SDS011;41120;51.820;20.804;2022-08-30T04:37:03;28.77;;;19.33;;
51957;SDS011;41120;51.820;20.804;2022-08-30T04:39:34;31.97;;;18.50;;
51957;SDS011;41120;51.820;20.804;2022-08-30T04:42:03;27.33;;;16.70;;
51957;SDS011;41120;51.820;20.804;2022-08-30T04:44:40;26.90;;;15.63;;
51957;SDS011;41120;51.820;20.804;2022-08-30T04:47:14;23.77;;;15.80;;
51957;SDS011;41120;51.820;20.804;2022-08-30T04:52:37;20.83;;;15.73;;
51957;SDS011;41120;51.820;20.804;2022-08-30T04:55:14;22.50;;;15.50;;
51957;SDS011;41120;51.820;20.804;2022-08-30T04:57:48;20.47;;;15.10;;
51957;SDS011;41120;51.820;20.804;2022-08-30T05:02:54;18.00;;;14.67;;
51957;SDS011;41120;51.820;20.804;2022-08-30T05:05:22;17.93;;;12.80;;
51957;SDS011;41120;51.820;20.804;2022-08-30T05:08:24;18.37;;;13.60;;
51957;SDS011;41120;51.820;20.804;2022-08-30T05:11:04;20.43;;;13.77;;
51957;SDS011;41120;51.820;20.804;2022-08-30T05:13:33;18.47;;;13.40;;
51957;SDS011;41120;51.820;20.804;2022-08-30T05:16:04;16.93;;;14.40;;
51957;SDS011;41120;51.820;20.804;2022-08-30T05:26:29;20.03;;;16.63;;
51957;SDS011;41120;51.820;20.804;2022-08-30T05:29:02;24.20;;;17.63;;
51957;SDS011;41120;51.820;20.804;2022-08-30T05:31:30;19.40;;;16.65;;
51957;SDS011;41120;51.820;20.804;2022-08-30T05:36:55;20.77;;;17.07;;
51957;SDS011;41120;51.820;20.804;2022-08-30T05:39:22;22.53;;;15.93;;
51957;SDS011;41120;51.820;20.804;2022-08-30T05:44:27;18.20;;;15.50;;
51957;SDS011;41120;51.820;20.804;2022-08-30T05:46:53;21.37;;;16.33;;
51957;SDS011;41120;51.820;20.804;2022-08-30T05:49:20;17.03;;;14.47;;
51957;SDS011;41120;51.820;20.804;2022-08-30T05:51:47;17.70;;;14.60;;
51957;SDS011;41120;51.820;20.804;2022-08-30T05:54:15;19.90;;;13.63;;
51957;SDS011;41120;51.820;20.804;2022-08-30T05:56:49;15.40;;;13.20;;
51957;SDS011;41120;51.820;20.804;2022-08-30T05:59:17;18.33;;;14.80;;
51957;SDS011;41120;51.820;20.804;2022-08-30T06:01:45;15.30;;;12.43;;
51957;SDS011;41120;51.820;20.804;2022-08-30T06:04:13;17.83;;;13.70;;
51957;SDS011;41120;51.820;20.804;2022-08-30T06:06:41;16.93;;;13.17;;
51957;SDS011;41120;51.820;20.804;2022-08-30T06:09:09;18.07;;;13.23;;
51957;SDS011;41120;51.820;20.804;2022-08-30T06:14:39;13.90;;;12.23;;
51957;SDS011;41120;51.820;20.804;2022-08-30T06:17:05;17.57;;;12.03;;
51957;SDS011;41120;51.820;20.804;2022-08-30T06:19:34;19.10;;;13.40;;
51957;SDS011;41120;51.820;20.804;2022-08-30T06:22:00;16.33;;;12.83;;
51957;SDS011;41120;51.820;20.804;2022-08-30T06:24:26;15.67;;;12.67;;
51957;SDS011;41120;51.820;20.804;2022-08-30T06:27:00;16.07;;;11.63;;
51957;SDS011;41120;51.820;20.804;2022-08-30T06:29:26;15.27;;;10.90;;
51957;SDS011;41120;51.820;20.804;2022-08-30T06:31:55;12.57;;;10.37;;
51957;SDS011;41120;51.820;20.804;2022-08-30T06:34:29;13.03;;;10.00;;
51957;SDS011;41120;51.820;20.804;2022-08-30T06:37:04;12.90;;;9.43;;
51957;SDS011;41120;51.820;20.804;2022-08-30T06:39:37;14.00;;;10.00;;
51957;SDS011;41120;51.820;20.804;2022-08-30T06:42:06;13.60;;;10.37;;
51957;SDS011;41120;51.820;20.804;2022-08-30T06:44:32;10.80;;;9.70;;
51957;SDS011;41120;51.820;20.804;2022-08-30T06:47:06;14.43;;;9.77;;
51957;SDS011;41120;51.820;20.804;2022-08-30T06:52:45;15.10;;;10.30;;
51957;SDS011;41120;51.820;20.804;2022-08-30T06:55:16;13.00;;;10.00;;
51957;SDS011;41120;51.820;20.804;2022-08-30T06:57:43;11.33;;;10.03;;
51957;SDS011;41120;51.820;20.804;2022-08-30T07:00:13;23.03;;;12.40;;
51957;SDS011;41120;51.820;20.804;2022-08-30T07:02:49;15.27;;;11.03;;
51957;SDS011;41120;51.820;20.804;2022-08-30T07:05:25;15.37;;;10.40;;
51957;SDS011;41120;51.820;20.804;2022-08-30T07:10:29;17.10;;;12.07;;
51957;SDS011;41120;51.820;20.804;2022-08-30T07:21:28;12.83;;;10.03;;
51957;SDS011;41120;51.820;20.804;2022-08-30T07:23:59;11.47;;;9.47;;
51957;SDS011;41120;51.820;20.804;2022-08-30T07:26:31;10.90;;;7.93;;
51957;SDS011;41120;51.820;20.804;2022-08-30T07:29:20;10.90;;;6.70;;
51957;SDS011;41120;51.820;20.804;2022-08-30T07:37:17;5.40;;;4.85;;
51957;SDS011;41120;51.820;20.804;2022-08-30T07:42:39;10.00;;;6.10;;
51957;SDS011;41120;51.820;20.804;2022-08-30T07:45:07;7.83;;;5.40;;
51957;SDS011;41120;51.820;20.804;2022-08-30T07:47:42;8.67;;;7.00;;
51957;SDS011;41120;51.820;20.804;2022-08-30T07:50:10;8.70;;;5.57;;
51957;SDS011;41120;51.820;20.804;2022-08-30T07:52:51;12.03;;;6.33;;
51957;SDS011;41120;51.820;20.804;2022-08-30T07:55:27;10.60;;;5.60;;
51957;SDS011;41120;51.820;20.804;2022-08-30T08:00:53;8.57;;;4.90;;
51957;SDS011;41120;51.820;20.804;2022-08-30T08:03:27;4.87;;;3.90;;
51957;SDS011;41120;51.820;20.804;2022-08-30T08:06:00;5.67;;;3.80;;
51957;SDS011;41120;51.820;20.804;2022-08-30T08:08:27;4.83;;;3.03;;
51957;SDS011;41120;51.820;20.804;2022-08-30T08:13:53;3.80;;;2.73;;
51957;SDS011;41120;51.820;20.804;2022-08-30T08:19:15;4.07;;;2.40;;
51957;SDS011;41120;51.820;20.804;2022-08-30T08:21:41;5.10;;;3.70;;
51957;SDS011;41120;51.820;20.804;2022-08-30T08:24:08;4.73;;;2.90;;
51957;SDS011;41120;51.820;20.804;2022-08-30T08:26:35;5.37;;;2.90;;
51957;SDS011;41120;51.820;20.804;2022-08-30T08:29:05;6.43;;;3.17;;
51957;SDS011;41120;51.820;20.804;2022-08-30T08:31:48;3.23;;;2.90;;
51957;SDS011;41120;51.820;20.804;2022-08-30T08:37:08;5.23;;;3.20;;
51957;SDS011;41120;51.820;20.804;2022-08-30T08:39:41;5.70;;;3.43;;
51957;SDS011;41120;51.820;20.804;2022-08-30T08:51:19;3.57;;;2.00;;
51957;SDS011;41120;51.820;20.804;2022-08-30T08:54:12;3.03;;;2.30;;
51957;SDS011;41120;51.820;20.804;2022-08-30T08:56:49;4.07;;;2.50;;
51957;SDS011;41120;51.820;20.804;2022-08-30T08:59:15;2.37;;;2.03;;
51957;SDS011;41120;51.820;20.804;2022-08-30T09:01:54;3.90;;;2.53;;
51957;SDS011;41120;51.820;20.804;2022-08-30T09:04:39;4.57;;;2.45;;
51957;SDS011;41120;51.820;20.804;2022-08-30T09:21:38;3.53;;;1.67;;
51957;SDS011;41120;51.820;20.804;2022-08-30T09:24:12;1.63;;;1.52;;
51957;SDS011;41120;51.820;20.804;2022-08-30T09:26:49;6.77;;;2.20;;
51957;SDS011;41120;51.820;20.804;2022-08-30T09:35:34;6.13;;;1.40;;
51957;SDS011;41120;51.820;20.804;2022-08-30T09:38:17;2.80;;;1.50;;
51957;SDS011;41120;51.820;20.804;2022-08-30T09:44:13;5.33;;;3.00;;
51957;SDS011;41120;51.820;20.804;2022-08-30T09:50:15;2.57;;;1.63;;
51957;SDS011;41120;51.820;20.804;2022-08-30T09:55:46;5.53;;;3.00;;
51957;SDS011;41120;51.820;20.804;2022-08-30T10:21:32;2.65;;;1.90;;
51957;SDS011;41120;51.820;20.804;2022-08-30T10:24:15;3.10;;;2.20;;
51957;SDS011;41120;51.820;20.804;2022-08-30T10:29:46;3.90;;;2.93;;
51957;SDS011;41120;51.820;20.804;2022-08-30T10:44:02;1.70;;;1.33;;
51957;SDS011;41120;51.820;20.804;2022-08-30T10:49:45;1.30;;;1.17;;
51957;SDS011;41120;51.820;20.804;2022-08-30T11:12:34;2.37;;;1.07;;
51957;SDS011;41120;51.820;20.804;2022-08-30T11:15:12;1.50;;;1.00;;
51957;SDS011;41120;51.820;20.804;2022-08-30T11:23:37;2.33;;;0.90;;
51957;SDS011;41120;51.820;20.804;2022-08-30T11:26:08;2.10;;;1.20;;
51957;SDS011;41120;51.820;20.804;2022-08-30T11:37:10;3.60;;;2.13;;
51957;SDS011;41120;51.820;20.804;2022-08-30T12:00:41;2.20;;;0.82;;
51957;SDS011;41120;51.820;20.804;2022-08-30T12:08:43;4.77;;;1.30;;
51957;SDS011;41120;51.820;20.804;2022-08-30T12:16:10;1.37;;;1.10;;
51957;SDS011;41120;51.820;20.804;2022-08-30T12:24:35;5.27;;;1.57;;
51957;SDS011;41120;51.820;20.804;2022-08-30T12:30:01;1.10;;;1.00;;
51957;SDS011;41120;51.820;20.804;2022-08-30T12:32:50;2.42;;;1.48;;
51957;SDS011;41120;51.820;20.804;2022-08-30T12:35:18;6.20;;;1.20;;
51957;SDS011;41120;51.820;20.804;2022-08-30T12:43:52;2.77;;;1.50;;
51957;SDS011;41120;51.820;20.804;2022-08-30T12:46:27;1.37;;;1.00;;
51957;SDS011;41120;51.820;20.804;2022-08-30T12:49:09;1.43;;;1.00;;
51957;SDS011;41120;51.820;20.804;2022-08-30T12:51:41;1.40;;;0.90;;
51957;SDS011;41120;51.820;20.804;2022-08-30T13:02:25;1.17;;;0.73;;
51957;SDS011;41120;51.820;20.804;2022-08-30T13:10:16;3.70;;;0.80;;
51957;SDS011;41120;51.820;20.804;2022-08-30T13:13:00;1.90;;;1.27;;
51957;SDS011;41120;51.820;20.804;2022-08-30T13:15:34;2.83;;;0.90;;
51957;SDS011;41120;51.820;20.804;2022-08-30T13:18:11;1.20;;;0.90;;
51957;SDS011;41120;51.820;20.804;2022-08-30T13:23:48;1.83;;;0.70;;
51957;SDS011;41120;51.820;20.804;2022-08-30T13:26:21;1.20;;;0.80;;
51957;SDS011;41120;51.820;20.804;2022-08-30T13:28:49;3.55;;;0.70;;
51957;SDS011;41120;51.820;20.804;2022-08-30T13:31:28;1.80;;;0.80;;
51957;SDS011;41120;51.820;20.804;2022-08-30T13:33:55;1.60;;;0.87;;
51957;SDS011;41120;51.820;20.804;2022-08-30T13:36:28;2.97;;;1.50;;
51957;SDS011;41120;51.820;20.804;2022-08-30T13:38:59;1.93;;;0.90;;
51957;SDS011;41120;51.820;20.804;2022-08-30T13:44:20;2.33;;;1.00;;
51957;SDS011;41120;51.820;20.804;2022-08-30T13:46:49;1.40;;;0.60;;
51957;SDS011;41120;51.820;20.804;2022-08-30T13:49:19;1.70;;;1.00;;
51957;SDS011;41120;51.820;20.804;2022-08-30T13:51:50;1.70;;;1.13;;
51957;SDS011;41120;51.820;20.804;2022-08-30T13:54:19;0.87;;;0.60;;
51957;SDS011;41120;51.820;20.804;2022-08-30T13:56:48;2.10;;;0.60;;
51957;SDS011;41120;51.820;20.804;2022-08-30T14:02:02;1.20;;;0.57;;
51957;SDS011;41120;51.820;20.804;2022-08-30T14:04:35;2.22;;;0.70;;
51957;SDS011;41120;51.820;20.804;2022-08-30T14:07:03;1.60;;;0.50;;
51957;SDS011;41120;51.820;20.804;2022-08-30T14:12:07;1.93;;;1.00;;
51957;SDS011;41120;51.820;20.804;2022-08-30T14:17:43;3.17;;;0.50;;
51957;SDS011;41120;51.820;20.804;2022-08-30T14:20:15;0.80;;;0.50;;
51957;SDS011;41120;51.820;20.804;2022-08-30T14:22:41;0.43;;;0.43;;
51957;SDS011;41120;51.820;20.804;2022-08-30T14:25:12;0.50;;;0.40;;
51957;SDS011;41120;51.820;20.804;2022-08-30T14:27:43;1.90;;;0.60;;
51957;SDS011;41120;51.820;20.804;2022-08-30T14:30:12;1.10;;;0.65;;
51957;SDS011;41120;51.820;20.804;2022-08-30T14:32:46;0.87;;;0.60;;
51957;SDS011;41120;51.820;20.804;2022-08-30T14:38:05;1.93;;;0.50;;
51957;SDS011;41120;51.820;20.804;2022-08-30T14:40:34;0.95;;;0.60;;
51957;SDS011;41120;51.820;20.804;2022-08-30T14:45:52;2.10;;;0.83;;
51957;SDS011;41120;51.820;20.804;2022-08-30T15:05:23;1.40;;;0.80;;
51957;SDS011;41120;51.820;20.804;2022-08-30T15:10:57;3.43;;;0.70;;
51957;SDS011;41120;51.820;20.804;2022-08-30T15:13:37;4.47;;;0.73;;
51957;SDS011;41120;51.820;20.804;2022-08-30T15:19:16;2.00;;;1.03;;
51957;SDS011;41120;51.820;20.804;2022-08-30T15:21:45;4.40;;;0.80;;
51957;SDS011;41120;51.820;20.804;2022-08-30T15:24:15;1.00;;;0.70;;
51957;SDS011;41120;51.820;20.804;2022-08-30T15:32:54;2.27;;;0.70;;
51957;SDS011;41120;51.820;20.804;2022-08-30T15:35:24;2.70;;;0.80;;
51957;SDS011;41120;51.820;20.804;2022-08-30T15:40:56;1.57;;;1.07;;
51957;SDS011;41120;51.820;20.804;2022-08-30T15:43:38;1.80;;;0.90;;
51957;SDS011;41120;51.820;20.804;2022-08-30T15:48:54;2.03;;;1.10;;
51957;SDS011;41120;51.820;20.804;2022-08-30T15:56:56;2.53;;;0.90;;
51957;SDS011;41120;51.820;20.804;2022-08-30T15:59:37;2.47;;;1.00;;
51957;SDS011;41120;51.820;20.804;2022-08-30T16:02:05;2.60;;;1.10;;
51957;SDS011;41120;51.820;20.804;2022-08-30T16:04:49;1.37;;;1.00;;
51957;SDS011;41120;51.820;20.804;2022-08-30T16:07:17;1.93;;;0.90;;
51957;SDS011;41120;51.820;20.804;2022-08-30T16:09:45;1.03;;;0.90;;
51957;SDS011;41120;51.820;20.804;2022-08-30T16:12:17;1.43;;;1.00;;
51957;SDS011;41120;51.820;20.804;2022-08-30T16:17:18;1.90;;;0.90;;
51957;SDS011;41120;51.820;20.804;2022-08-30T16:19:57;1.80;;;1.00;;
51957;SDS011;41120;51.820;20.804;2022-08-30T16:22:23;1.20;;;0.83;;
51957;SDS011;41120;51.820;20.804;2022-08-30T16:24:55;1.27;;;1.03;;
51957;SDS011;41120;51.820;20.804;2022-08-30T16:27:37;1.00;;;0.80;;
51957;SDS011;41120;51.820;20.804;2022-08-30T16:30:08;2.27;;;1.00;;
51957;SDS011;41120;51.820;20.804;2022-08-30T16:32:47;3.90;;;0.90;;
51957;SDS011;41120;51.820;20.804;2022-08-30T16:35:14;1.67;;;0.80;;
51957;SDS011;41120;51.820;20.804;2022-08-30T16:37:46;1.87;;;0.80;;
51957;SDS011;41120;51.820;20.804;2022-08-30T16:40:12;2.73;;;0.90;;
51957;SDS011;41120;51.820;20.804;2022-08-30T16:42:56;1.63;;;0.97;;
51957;SDS011;41120;51.820;20.804;2022-08-30T16:45:29;2.33;;;0.80;;
51957;SDS011;41120;51.820;20.804;2022-08-30T16:48:08;2.40;;;0.83;;
51957;SDS011;41120;51.820;20.804;2022-08-30T16:50:40;0.97;;;0.70;;
51957;SDS011;41120;51.820;20.804;2022-08-30T16:53:08;3.23;;;0.80;;
51957;SDS011;41120;51.820;20.804;2022-08-30T17:01:07;1.83;;;0.90;;
51957;SDS011;41120;51.820;20.804;2022-08-30T17:03:34;1.20;;;0.80;;
51957;SDS011;41120;51.820;20.804;2022-08-30T17:06:04;2.87;;;0.90;;
51957;SDS011;41120;51.820;20.804;2022-08-30T17:08:31;3.57;;;0.87;;
51957;SDS011;41120;51.820;20.804;2022-08-30T17:10:57;5.67;;;1.00;;
51957;SDS011;41120;51.820;20.804;2022-08-30T17:13:26;4.63;;;1.00;;
51957;SDS011;41120;51.820;20.804;2022-08-30T17:15:53;2.50;;;0.90;;
51957;SDS011;41120;51.820;20.804;2022-08-30T17:18:28;2.37;;;1.00;;
51957;SDS011;41120;51.820;20.804;2022-08-30T17:23:28;3.00;;;1.30;;
51957;SDS011;41120;51.820;20.804;2022-08-30T17:25:59;2.50;;;1.10;;
51957;SDS011;41120;51.820;20.804;2022-08-30T17:34:14;4.50;;;1.50;;
51957;SDS011;41120;51.820;20.804;2022-08-30T17:36:50;2.83;;;1.00;;
51957;SDS011;41120;51.820;20.804;2022-08-30T17:39:22;1.77;;;0.97;;
51957;SDS011;41120;51.820;20.804;2022-08-30T17:41:51;1.63;;;1.00;;
51957;SDS011;41120;51.820;20.804;2022-08-30T17:44:19;3.10;;;1.10;;
51957;SDS011;41120;51.820;20.804;2022-08-30T17:46:55;1.30;;;0.77;;
51957;SDS011;41120;51.820;20.804;2022-08-30T17:49:25;1.95;;;1.05;;
51957;SDS011;41120;51.820;20.804;2022-08-30T17:51:54;2.57;;;0.97;;
51957;SDS011;41120;51.820;20.804;2022-08-30T17:54:22;3.37;;;1.20;;
51957;SDS011;41120;51.820;20.804;2022-08-30T17:56:49;1.63;;;1.20;;
51957;SDS011;41120;51.820;20.804;2022-08-30T17:59:16;2.03;;;1.30;;
51957;SDS011;41120;51.820;20.804;2022-08-30T18:01:49;2.50;;;1.20;;
51957;SDS011;41120;51.820;20.804;2022-08-30T18:04:19;1.87;;;1.20;;
51957;SDS011;41120;51.820;20.804;2022-08-30T18:06:58;3.60;;;1.43;;
51957;SDS011;41120;51.820;20.804;2022-08-30T18:09:24;1.73;;;1.20;;
51957;SDS011;41120;51.820;20.804;2022-08-30T18:11:52;2.83;;;1.30;;
51957;SDS011;41120;51.820;20.804;2022-08-30T18:22:52;3.70;;;1.60;;
51957;SDS011;41120;51.820;20.804;2022-08-30T18:25:19;5.00;;;1.70;;
51957;SDS011;41120;51.820;20.804;2022-08-30T18:27:59;3.67;;;1.83;;
51957;SDS011;41120;51.820;20.804;2022-08-30T18:35:44;6.00;;;2.00;;
51957;SDS011;41120;51.820;20.804;2022-08-30T18:38:20;2.87;;;1.80;;
51957;SDS011;41120;51.820;20.804;2022-08-30T18:40:57;4.50;;;2.10;;
51957;SDS011;41120;51.820;20.804;2022-08-30T18:48:59;6.17;;;2.20;;
51957;SDS011;41120;51.820;20.804;2022-08-30T18:51:28;6.13;;;2.23;;
51957;SDS011;41120;51.820;20.804;2022-08-30T18:53:55;4.07;;;1.97;;
51957;SDS011;41120;51.820;20.804;2022-08-30T18:58:57;5.10;;;2.03;;
51957;SDS011;41120;51.820;20.804;2022-08-30T19:03:55;4.33;;;1.87;;
51957;SDS011;41120;51.820;20.804;2022-08-30T19:09:02;4.27;;;1.87;;
51957;SDS011;41120;51.820;20.804;2022-08-30T19:11:29;4.53;;;2.10;;
51957;SDS011;41120;51.820;20.804;2022-08-30T19:13:56;5.67;;;1.93;;
51957;SDS011;41120;51.820;20.804;2022-08-30T19:16:27;3.53;;;2.00;;
51957;SDS011;41120;51.820;20.804;2022-08-30T19:19:00;4.60;;;2.00;;
51957;SDS011;41120;51.820;20.804;2022-08-30T19:21:27;4.30;;;1.97;;
51957;SDS011;41120;51.820;20.804;2022-08-30T19:23:57;3.50;;;2.00;;
51957;SDS011;41120;51.820;20.804;2022-08-30T19:26:26;3.70;;;1.73;;
51957;SDS011;41120;51.820;20.804;2022-08-30T19:28:53;3.73;;;2.13;;
51957;SDS011;41120;51.820;20.804;2022-08-30T19:31:22;6.37;;;1.83;;
51957;SDS011;41120;51.820;20.804;2022-08-30T19:33:50;4.73;;;1.70;;
51957;SDS011;41120;51.820;20.804;2022-08-30T19:36:16;4.23;;;1.80;;
51957;SDS011;41120;51.820;20.804;2022-08-30T19:38:43;6.00;;;2.00;;
51957;SDS011;41120;51.820;20.804;2022-08-30T19:41:26;3.53;;;1.87;;
51957;SDS011;41120;51.820;20.804;2022-08-30T19:43:54;4.63;;;2.00;;
51957;SDS011;41120;51.820;20.804;2022-08-30T19:46:23;3.23;;;1.70;;
51957;SDS011;41120;51.820;20.804;2022-08-30T19:48:59;5.00;;;1.83;;
51957;SDS011;41120;51.820;20.804;2022-08-30T19:51:32;3.83;;;2.00;;
51957;SDS011;41120;51.820;20.804;2022-08-30T19:54:05;6.03;;;2.07;;
51957;SDS011;41120;51.820;20.804;2022-08-30T19:56:32;3.83;;;1.90;;
51957;SDS011;41120;51.820;20.804;2022-08-30T20:01:48;5.27;;;2.10;;
51957;SDS011;41120;51.820;20.804;2022-08-30T20:04:29;3.40;;;1.60;;
51957;SDS011;41120;51.820;20.804;2022-08-30T20:06:58;3.60;;;1.90;;
51957;SDS011;41120;51.820;20.804;2022-08-30T20:09:35;3.83;;;1.87;;
51957;SDS011;41120;51.820;20.804;2022-08-30T20:12:03;3.60;;;1.53;;
51957;SDS011;41120;51.820;20.804;2022-08-30T20:14:32;4.73;;;1.60;;
51957;SDS011;41120;51.820;20.804;2022-08-30T20:17:01;2.03;;;1.50;;
51957;SDS011;41120;51.820;20.804;2022-08-30T20:19:28;5.40;;;1.20;;
51957;SDS011;41120;51.820;20.804;2022-08-30T20:21:55;1.93;;;1.10;;
51957;SDS011;41120;51.820;20.804;2022-08-30T20:24:20;3.67;;;1.10;;
51957;SDS011;41120;51.820;20.804;2022-08-30T20:26:48;2.07;;;1.10;;
51957;SDS011;41120;51.820;20.804;2022-08-30T20:29:17;3.43;;;1.20;;
51957;SDS011;41120;51.820;20.804;2022-08-30T20:31:44;2.30;;;1.00;;
51957;SDS011;41120;51.820;20.804;2022-08-30T20:34:14;2.83;;;0.87;;
51957;SDS011;41120;51.820;20.804;2022-08-30T20:36:40;2.13;;;1.00;;
51957;SDS011;41120;51.820;20.804;2022-08-30T20:39:06;2.80;;;0.97;;
51957;SDS011;41120;51.820;20.804;2022-08-30T20:41:35;2.10;;;0.83;;
51957;SDS011;41120;51.820;20.804;2022-08-30T20:44:03;1.90;;;1.10;;
51957;SDS011;41120;51.820;20.804;2022-08-30T20:46:29;1.30;;;1.00;;
51957;SDS011;41120;51.820;20.804;2022-08-30T20:48:56;2.87;;;1.30;;
51957;SDS011;41120;51.820;20.804;2022-08-30T20:51:26;2.40;;;0.80;;
51957;SDS011;41120;51.820;20.804;2022-08-30T20:53:54;2.77;;;1.07;;
51957;SDS011;41120;51.820;20.804;2022-08-30T20:56:22;1.77;;;0.80;;
51957;SDS011;41120;51.820;20.804;2022-08-30T20:58:52;2.97;;;1.07;;
51957;SDS011;41120;51.820;20.804;2022-08-30T21:01:24;1.60;;;0.90;;
51957;SDS011;41120;51.820;20.804;2022-08-30T21:06:21;1.13;;;0.90;;
51957;SDS011;41120;51.820;20.804;2022-08-30T21:11:47;3.03;;;0.97;;
51957;SDS011;41120;51.820;20.804;2022-08-30T21:14:23;1.97;;;1.00;;
51957;SDS011;41120;51.820;20.804;2022-08-30T21:19:23;2.07;;;1.27;;
51957;SDS011;41120;51.820;20.804;2022-08-30T21:21:53;1.23;;;0.98;;
51957;SDS011;41120;51.820;20.804;2022-08-30T21:27:11;2.77;;;1.20;;
51957;SDS011;41120;51.820;20.804;2022-08-30T21:29:49;2.17;;;0.90;;
51957;SDS011;41120;51.820;20.804;2022-08-30T21:38:07;2.70;;;0.80;;
51957;SDS011;41120;51.820;20.804;2022-08-30T21:40:45;4.43;;;0.70;;
51957;SDS011;41120;51.820;20.804;2022-08-30T21:43:14;3.43;;;1.10;;
51957;SDS011;41120;51.820;20.804;2022-08-30T21:48:17;2.20;;;0.80;;
51957;SDS011;41120;51.820;20.804;2022-08-30T21:50:52;1.77;;;0.77;;
51957;SDS011;41120;51.820;20.804;2022-08-30T21:53:37;4.23;;;1.47;;
51957;SDS011;41120;51.820;20.804;2022-08-30T21:58:46;1.37;;;0.87;;
51957;SDS011;41120;51.820;20.804;2022-08-30T22:03:54;1.63;;;0.93;;
51957;SDS011;41120;51.820;20.804;2022-08-30T22:06:31;1.75;;;1.00;;
51957;SDS011;41120;51.820;20.804;2022-08-30T22:09:19;4.77;;;0.90;;
51957;SDS011;41120;51.820;20.804;2022-08-30T22:14:36;4.07;;;0.77;;
51957;SDS011;41120;51.820;20.804;2022-08-30T22:19:38;1.20;;;0.80;;
51957;SDS011;41120;51.820;20.804;2022-08-30T22:22:04;6.72;;;1.10;;
51957;SDS011;41120;51.820;20.804;2022-08-30T22:24:36;1.53;;;0.90;;
51957;SDS011;41120;51.820;20.804;2022-08-30T22:35:05;3.53;;;1.10;;
51957;SDS011;41120;51.820;20.804;2022-08-30T22:37:42;1.53;;;0.83;;
51957;SDS011;41120;51.820;20.804;2022-08-30T22:40:14;3.27;;;1.30;;
51957;SDS011;41120;51.820;20.804;2022-08-30T22:42:57;1.85;;;0.90;;
51957;SDS011;41120;51.820;20.804;2022-08-30T22:48:44;3.37;;;0.90;;
51957;SDS011;41120;51.820;20.804;2022-08-30T22:51:24;5.77;;;2.00;;
51957;SDS011;41120;51.820;20.804;2022-08-30T22:56:59;1.47;;;1.00;;
51957;SDS011;41120;51.820;20.804;2022-08-30T22:59:25;2.60;;;1.20;;
51957;SDS011;41120;51.820;20.804;2022-08-30T23:02:04;3.93;;;1.13;;
51957;SDS011;41120;51.820;20.804;2022-08-30T23:04:45;2.17;;;1.00;;
51957;SDS011;41120;51.820;20.804;2022-08-30T23:15:26;3.23;;;1.33;;
51957;SDS011;41120;51.820;20.804;2022-08-30T23:17:59;2.43;;;1.30;;